PWSweather.com
Personal Weather Stations
Station Observations
WISCHPK61
Green Bay Schmitt Park, Green Bay, WI 54311

Green Bay Schmitt ParkGreen Bay, WI 54311

Lat: 44.514277, Lon: -87.935067

Elevation: 735

Station Type: Acu Rite Pro Weather Center model 02032C

http://greenbayweathercam.com

High Low Average
Temperature 15.4°F-9.2°C -6.5°F-21.4°C 5.5°F-14.7°C
Dew Point 15.0°F-9.4°C -10.7°F-23.7°C 3.7°F-15.7°C
Winds Calm Calm Calm Calm Calm SSECalm SSE
Wind Gusts -- -- --
Humidity 99% 61% 92%
Pressure 29.25 in990.5 mb 29.01 in982.4 mb -
Precipitation 0.00 in0.0 mm - -
Hour Temp Dew Point Humidity Winds Wind Gusts Pressure Precip Precip Rate Daily Precip Total
12:00 AM -1.3°F-18.5°C -1.5°F-18.6°C 99% Calm Calm -- 29.28 in991.5 mb - 0.00 in0.0 mm 0.00 in0.0 mm
01:00 AM -0.4°F-18.0°C -10.7°F-23.7°C 61% Calm Calm -- 29.25 in990.5 mb - 0.00 in0.0 mm 0.00 in0.0 mm
02:00 AM 0.9°F-17.3°C 0.7°F-17.4°C 99% Calm Calm -- 29.21 in989.2 mb - 0.00 in0.0 mm 0.00 in0.0 mm
03:00 AM 1.4°F-17.0°C -5.3°F-20.7°C 73% Calm Calm -- 29.16 in987.5 mb - 0.00 in0.0 mm 0.00 in0.0 mm
04:00 AM 3.0°F-16.1°C 2.8°F-16.2°C 99% Calm Calm -- 29.14 in986.8 mb - 0.00 in0.0 mm 0.00 in0.0 mm
05:00 AM 8.1°F-13.3°C 7.9°F-13.4°C 99% Calm Calm -- 29.08 in984.8 mb - 0.00 in0.0 mm 0.00 in0.0 mm
06:00 AM 11.3°F-11.5°C 11.1°F-11.6°C 99% Calm Calm -- 29.07 in984.4 mb - 0.00 in0.0 mm 0.00 in0.0 mm
07:00 AM 11.7°F-11.3°C 11.5°F-11.4°C 99% Calm Calm -- 29.04 in983.4 mb - 0.00 in0.0 mm 0.00 in0.0 mm
08:00 AM 12.0°F-11.1°C 11.8°F-11.2°C 99% Calm Calm -- 29.04 in983.4 mb - 0.00 in0.0 mm 0.00 in0.0 mm
09:00 AM 12.6°F-10.8°C 9.2°F-12.7°C 86% Calm Calm -- 29.05 in983.7 mb - 0.00 in0.0 mm 0.00 in0.0 mm
10:00 AM 13.5°F-10.3°C 13.3°F-10.4°C 99% Calm Calm -- 29.04 in983.4 mb - 0.00 in0.0 mm 0.00 in0.0 mm
11:00 AM 13.5°F-10.3°C 13.3°F-10.4°C 99% Calm Calm -- 29.06 in984.1 mb - 0.00 in0.0 mm 0.00 in0.0 mm
12:00 PM 15.3°F-9.3°C 15.0°F-9.4°C 99% Calm Calm -- 29.04 in983.4 mb - 0.00 in0.0 mm 0.00 in0.0 mm
01:00 PM 15.4°F-9.2°C 12.2°F-11.0°C 87% Calm Calm -- 29.02 in982.7 mb - 0.00 in0.0 mm 0.00 in0.0 mm
02:00 PM 11.9°F-11.2°C 8.5°F-13.1°C 86% Calm Calm -- 29.02 in982.7 mb - 0.00 in0.0 mm 0.00 in0.0 mm
03:00 PM 7.3°F-13.7°C 1.9°F-16.7°C 78% Calm Calm -- 29.01 in982.4 mb - 0.00 in0.0 mm 0.00 in0.0 mm
04:00 PM 6.4°F-14.2°C 2.1°F-16.6°C 82% Calm Calm -- 29.02 in982.7 mb - 0.00 in0.0 mm 0.00 in0.0 mm
05:00 PM 5.0°F-15.0°C 4.8°F-15.1°C 99% Calm Calm -- 29.04 in983.4 mb - 0.00 in0.0 mm 0.00 in0.0 mm
06:00 PM 2.7°F-16.3°C 2.5°F-16.4°C 99% Calm Calm -- 29.07 in984.4 mb - 0.00 in0.0 mm 0.00 in0.0 mm
07:00 PM 0.3°F-17.6°C 0.1°F-17.7°C 99% Calm Calm -- 29.10 in985.4 mb - 0.00 in0.0 mm 0.00 in0.0 mm
08:00 PM -0.8°F-18.2°C -5.0°F-20.6°C 82% Calm Calm -- 29.12 in986.1 mb - 0.00 in0.0 mm 0.00 in0.0 mm
09:00 PM -2.2°F-19.0°C -2.4°F-19.1°C 99% Calm Calm -- 29.12 in986.1 mb - 0.00 in0.0 mm 0.00 in0.0 mm
10:00 PM -4.4°F-20.2°C -4.6°F-20.3°C 99% Calm Calm -- 29.12 in986.1 mb - 0.00 in0.0 mm 0.00 in0.0 mm
11:00 PM -6.0°F-21.1°C -6.2°F-21.2°C 99% Calm Calm -- 29.11 in985.8 mb - 0.00 in0.0 mm 0.00 in0.0 mm